Niagara-on-the-Lake, Ontario

6:30 PM EST on November 27, 2014 (GMT -0500)
the original Riverbend Farm | Change Station
CLOSE
Current Station
Personal Weather Station
Location: Niagara On The Lake, Ontario
Elevation: 315 ft
Nearby Weather Stations

Elev 315 ft 43.21 °N, 79.06 °W | Updated 287 days ago

Snow
Snow
32 °F
Feels Like 27 °F
N
8
Wind Variable Wind from NW
Gusts 9 mph

Today
High -- | Low -- °F
--% Chance of Precip.
Yesterday
High -- | Low -- °F
Precip. -- in
7:23 AM 4:43 PM
Waxing Crescent, 34% visible
Pressure 30.09 in
Visibility 8.0 miles
Clouds Scattered Clouds 1000 ft
Mostly Cloudy 2600 ft
Overcast 3800 ft
Windchill 27 °F
Dew Point 21 °F
Humidity 64%
Rainfall 0.00 in
Snow Depth Not available.
UV 0 out of 12
Pollen .10 out of 12
Air Quality Not available.
Flu Activity Not available.
SPECI KDKK 272326Z AUTO 27009G20KT 8SM -SN SCT010 BKN026 OVC038 00/M03 A3009 RMK AO2 SNB2255 P0000 T00001033

More Conditions Fewer Conditions

Pressure 30.09 in
Visibility 8.0 miles
Clouds Scattered Clouds 1000 ft
Mostly Cloudy 2600 ft
Overcast 3800 ft
Windchill 27 °F
Dew Point 21 °F
Humidity 64%
Rainfall 0.00 in
Snow Depth Not available.
UV 0 out of 12
Pollen .10 out of 12
Air Quality Not available.
Flu Activity Not available.
SPECI KDKK 272326Z AUTO 27009G20KT 8SM -SN SCT010 BKN026 OVC038 00/M03 A3009 RMK AO2 SNB2255 P0000 T00001033

More Conditions Fewer Conditions

10-Day Weather Forecast

Almanac

Astronomy

Nov. 27, 2014 Rise Set
Actual Time
Civil Twilight
Nautical Twilight
Astronomical Twilight
Moon
Length of Visible Light
Length of Day
Tomorrow will be .
, % of the Moon is Illuminated

Today's Extremes

Country Highs Country Lows

Community

WunderPhotos

Upload Photos

1,774,139 photos uploaded!

WunderBlogs® & News

Nearby

Air Quality

  Air Quality AQ Index Pollutant
Not available.

Snow Depth

Station Depth Elevation

Earthquake Activity

City Distance Mag. Time & Date
Minimum magnitude displayed is 2.5.

Coastal Water Temperatures

Place Temperature

Nearby Weather Stations